Time,TemperatureF,DewpointF,PressureIn,WindDirection,WindDirectionDegrees,WindSpeedMPH,WindSpeedGustMPH,Humidity,HourlyPrecipIn,Conditions,Clouds,dailyrainin,SoftwareType,DateUTC
2014-09-02 00:11:00,84.0,44.0,29.69,WNW,293,1.0,2.0,25,0.00,,,0.00,,2014-09-02 07:11:00,
2014-09-02 00:42:00,83.0,46.0,29.69,WNW,293,1.0,2.0,27,0.00,,,0.00,,2014-09-02 07:42:00,
2014-09-02 00:52:00,82.0,46.0,29.69,WNW,293,1.0,2.0,28,0.00,,,0.00,,2014-09-02 07:52:00,
2014-09-02 01:12:00,81.0,46.0,29.70,NNW,341,2.0,3.0,29,0.00,,,0.00,,2014-09-02 08:12:00,
2014-09-02 01:22:00,79.0,45.0,29.70,NNE,22,3.0,5.0,30,0.00,,,0.00,,2014-09-02 08:22:00,
2014-09-02 01:42:00,78.0,45.0,29.70,NNE,17,3.0,5.0,31,0.00,,,0.00,,2014-09-02 08:42:00,
2014-09-02 01:52:00,79.0,46.0,29.69,North,357,4.0,6.0,31,0.00,,,0.00,,2014-09-02 08:52:00,
2014-09-02 02:12:00,79.0,46.0,29.70,North,6,3.0,4.0,31,0.00,,,0.00,,2014-09-02 09:12:00,
2014-09-02 02:43:00,77.0,45.0,29.69,North,5,4.0,6.0,32,0.00,,,0.00,,2014-09-02 09:43:00,
2014-09-02 02:54:00,77.0,45.0,29.69,North,359,1.0,6.0,32,0.00,,,0.00,,2014-09-02 09:54:00,
2014-09-02 03:13:00,77.0,45.0,29.69,North,359,1.0,3.0,32,0.00,,,0.00,,2014-09-02 10:13:00,
2014-09-02 03:24:00,76.0,43.0,29.69,North,1,4.0,6.0,31,0.00,,,0.00,,2014-09-02 10:24:00,
2014-09-02 03:53:00,78.0,44.0,29.69,North,4,4.0,5.0,30,0.00,,,0.00,,2014-09-02 10:53:00,
2014-09-02 04:23:00,78.0,43.0,29.68,North,353,5.0,7.0,29,0.00,,,0.00,,2014-09-02 11:23:00,
2014-09-02 04:52:00,77.0,44.0,29.69,North,10,4.0,6.0,31,0.00,,,0.00,,2014-09-02 11:52:00,
2014-09-02 05:22:00,77.0,46.0,29.69,North,353,4.0,7.0,33,0.00,,,0.00,,2014-09-02 12:22:00,
2014-09-02 05:52:00,76.0,46.0,29.70,NNE,24,3.0,5.0,34,0.00,,,0.00,,2014-09-02 12:52:00,
2014-09-02 06:22:00,75.0,45.0,29.71,ENE,76,4.0,6.0,34,0.00,,,0.00,,2014-09-02 13:22:00,
2014-09-02 07:23:00,74.0,51.0,29.72,East,81,1.0,3.0,44,0.00,,,0.00,,2014-09-02 14:23:00,
2014-09-02 08:12:00,79.0,49.0,29.73,ESE,112,3.0,7.0,35,0.00,,,0.00,,2014-09-02 15:12:00,
2014-09-02 08:22:00,81.0,47.0,29.73,East,96,3.0,6.0,31,0.00,,,0.00,,2014-09-02 15:22:00,
2014-09-02 09:13:00,85.0,52.0,29.74,SE,128,4.0,6.0,32,0.00,,,0.00,,2014-09-02 16:13:00,
2014-09-02 09:24:00,86.0,52.0,29.74,ESE,121,2.0,5.0,31,0.00,,,0.00,,2014-09-02 16:24:00,
2014-09-02 10:23:00,90.0,52.0,29.74,SE,130,3.0,7.0,28,0.00,,,0.00,,2014-09-02 17:23:00,
2014-09-02 11:23:00,96.0,50.0,29.72,NNE,32,0.0,6.0,21,0.00,,,0.00,,2014-09-02 18:23:00,